KAI weather

Kaieteur International Airport
Kaieteur Falls, Potaro-Siparuni, Guyana

Public forecast

Using degrees Celsius for public forecast. Weather courtesy of forecast.io.

Closest aviation weather report (METAR) to Kaieteur International Airport

Report is more than 6 hours old.

Closest report is Kato Airport, 37.5 nm (69.4 km) SSW. Retrieved 2015/03/16 10:57 UTC (5 years ago):

SYKT 161057Z 1612/1623 04006KT 9999 BKN018 BKN038 TEMPO 1618/1623 SCT022

Closest aviation forecast (TAF) to Kaieteur International Airport

Forecast is more than 12 hours old.

Closest forecast is Kato Airport, 37.5 nm (69.4 km) SSW. Retrieved 2019/10/05 12:00 UTC (15 days ago):

TAF SYKT 051100Z 0512/0523 08012KT 9999 SCT020 BKN090 TEMPO 0516/0519 6000 TSRA FEW015CB BKN016